Time;durP1;ratioP1;P1;durP2;ratioP2;P2;SDS_P1;SDS_P2;PMS_P1;PMS_P2;Temp;Humidity;BMP_temperature;BMP_pressure;BME280_temperature;BME280_humidity;BME280_pressure;Samples;Min_cycle;Max_cycle;Signal;HPM_P1;HPM_P2
2023/03/25 00:01:28;;;;;;;10.48;1.73;;;;;;;8.46;98.27;100244.38;5072516;28;20024;-46
2023/03/25 00:03:54;;;;;;;8.13;1.83;;;;;;;8.48;97.24;100247.84;5072210;28;20028;-45
2023/03/25 00:06:19;;;;;;;8.60;1.50;;;;;;;8.45;97.85;100240.06;5071844;28;20880;-44
2023/03/25 00:08:45;;;;;;;7.97;1.75;;;;;;;8.55;96.52;100236.94;5069687;28;20106;-46
2023/03/25 00:11:10;;;;;;;8.70;1.40;;;;;;;8.48;97.51;100246.97;5074780;28;20107;-45
2023/03/25 00:13:35;;;;;;;7.90;1.48;;;;;;;8.52;96.95;100241.09;5074752;28;20399;-49
2023/03/25 00:16:02;;;;;;;9.85;1.77;;;;;;;8.57;95.93;100249.78;5075438;28;20079;-47
2023/03/25 00:18:32;;;;;;;9.57;1.60;;;;;;;8.55;95.75;100252.31;5070481;28;20033;-45
2023/03/25 00:21:00;;;;;;;7.38;1.58;;;;;;;8.59;95.58;100254.13;5070729;28;20036;-44
2023/03/25 00:23:26;;;;;;;6.47;1.50;;;;;;;8.64;94.78;100250.81;5070626;28;20033;-45
2023/03/25 00:25:52;;;;;;;8.30;1.73;;;;;;;8.58;95.20;100242.13;5056094;28;20064;-45
2023/03/25 00:28:18;;;;;;;9.23;2.00;;;;;;;8.59;94.72;100248.13;5052194;28;20048;-45
2023/03/25 00:30:44;;;;;;;6.57;1.48;;;;;;;8.55;95.23;100244.63;5069145;28;20029;-45
2023/03/25 00:33:12;;;;;;;6.63;1.83;;;;;;;8.63;93.28;100249.09;5069273;28;20082;-47
2023/03/25 00:35:38;;;;;;;10.25;2.15;;;;;;;8.61;93.78;100249.00;5072891;28;20032;-45
2023/03/25 00:38:06;;;;;;;12.27;1.67;;;;;;;8.60;93.16;100252.41;5073702;28;20099;-46
2023/03/25 00:40:35;;;;;;;9.70;1.70;;;;;;;8.67;92.34;100261.13;5074532;28;20032;-44
2023/03/25 00:43:02;;;;;;;7.72;1.65;;;;;;;8.65;92.34;100255.09;5074696;28;20065;-47
2023/03/25 00:45:28;;;;;;;9.52;1.60;;;;;;;8.63;92.27;100261.91;5068928;28;20107;-46
2023/03/25 00:47:54;;;;;;;8.75;1.70;;;;;;;8.63;92.12;100251.66;5068856;28;20585;-46
2023/03/25 00:50:20;;;;;;;9.35;1.70;;;;;;;8.58;93.56;100249.81;5068794;28;20119;-47
2023/03/25 00:52:46;;;;;;;12.10;1.70;;;;;;;8.63;92.96;100252.50;5068273;28;20119;-47
2023/03/25 00:55:12;;;;;;;15.20;2.08;;;;;;;8.57;92.73;100252.34;5069114;28;20020;-44
2023/03/25 00:57:37;;;;;;;6.47;1.50;;;;;;;8.55;92.36;100256.53;5071844;28;20445;-45
2023/03/25 01:00:09;;;;;;;8.38;1.65;;;;;;;8.56;92.30;100250.63;5070645;28;20033;-46
2023/03/25 01:02:35;;;;;;;10.25;1.65;;;;;;;8.51;93.35;100258.19;5072832;28;20398;-45
2023/03/25 01:05:01;;;;;;;11.25;1.75;;;;;;;8.47;93.66;100246.09;5076689;28;20077;-46
2023/03/25 01:07:30;;;;;;;8.45;1.27;;;;;;;8.45;93.56;100244.34;5081131;28;20424;-46
2023/03/25 01:09:57;;;;;;;9.23;1.48;;;;;;;8.50;92.83;100253.03;5079504;28;20031;-45
2023/03/25 01:12:23;;;;;;;7.75;1.52;;;;;;;8.52;92.71;100253.91;5075260;28;20116;-45
2023/03/25 01:14:49;;;;;;;7.40;1.73;;;;;;;8.47;94.44;100253.78;5062852;28;20066;-45
2023/03/25 01:17:15;;;;;;;12.77;1.83;;;;;;;8.44;95.75;100256.28;5074979;28;20107;-48
2023/03/25 01:19:40;;;;;;;8.27;1.65;;;;;;;8.48;95.37;100231.59;5081324;28;20107;-45
2023/03/25 01:22:05;;;;;;;8.82;1.88;;;;;;;8.40;95.71;100245.91;5074373;28;20036;-45
2023/03/25 01:24:32;;;;;;;8.60;1.67;;;;;;;8.36;95.14;100251.75;5077533;28;20029;-45
2023/03/25 01:26:57;;;;;;;8.25;1.73;;;;;;;8.42;94.48;100239.97;5075931;28;20561;-45
2023/03/25 01:29:23;;;;;;;11.88;1.63;;;;;;;8.42;94.80;100239.97;5057671;28;20040;-45
2023/03/25 01:31:48;;;;;;;9.73;1.60;;;;;;;8.38;96.11;100251.00;5072748;28;20040;-44
2023/03/25 01:34:14;;;;;;;6.43;1.40;;;;;;;8.34;95.80;100250.00;5071757;28;20039;-45
2023/03/25 01:36:45;;;;;;;10.43;1.48;;;;;;;8.35;97.47;100248.31;5077393;28;20031;-46
2023/03/25 01:39:12;;;;;;;8.13;1.58;;;;;;;8.26;99.58;100237.81;5077442;28;20462;-44
2023/03/25 01:41:38;;;;;;;8.93;1.58;;;;;;;8.16;99.63;100248.63;5058731;28;20121;-44
2023/03/25 01:44:12;;;;;;;7.60;1.80;;;;;;;8.14;99.86;100247.72;5074244;28;20044;-46
2023/03/25 01:46:38;;;;;;;6.45;1.50;;;;;;;8.07;100.00;100249.25;5078704;28;20076;-45
2023/03/25 01:49:07;;;;;;;8.30;1.60;;;;;;;8.03;100.00;100248.28;5077675;28;20055;-46
2023/03/25 01:51:39;;;;;;;7.35;1.58;;;;;;;8.06;100.00;100250.91;5076095;28;20035;-45
2023/03/25 01:54:05;;;;;;;7.00;1.60;;;;;;;7.98;100.00;100229.34;5074642;28;20490;-45
2023/03/25 01:56:36;;;;;;;6.10;1.60;;;;;;;7.95;100.00;100244.66;5078857;28;20522;-45
2023/03/25 01:59:05;;;;;;;8.27;1.70;;;;;;;7.89;100.00;100235.94;5072478;28;20032;-46
2023/03/25 02:01:31;;;;;;;5.75;1.42;;;;;;;7.84;100.00;100240.91;5075742;28;20080;-44
2023/03/25 02:04:01;;;;;;;7.68;1.50;;;;;;;7.79;100.00;100229.66;5079272;28;20025;-44
2023/03/25 02:06:38;;;;;;;6.85;1.63;;;;;;;7.72;100.00;100236.28;5077758;28;20023;-45
2023/03/25 02:09:05;;;;;;;9.20;2.10;;;;;;;7.67;100.00;100231.88;5075953;28;20082;-44
2023/03/25 02:11:31;;;;;;;7.60;2.03;;;;;;;7.61;100.00;100218.88;5073757;28;20548;-45
2023/03/25 02:14:00;;;;;;;6.93;1.60;;;;;;;7.65;100.00;100226.72;5071598;28;20070;-44
2023/03/25 02:16:43;;;;;;;10.73;1.75;;;;;;;7.66;100.00;100223.31;5076298;28;20045;-45
2023/03/25 02:20:08;;;;;;;5.47;1.75;;;;;;;7.65;100.00;100226.72;5075157;28;20016;-45
2023/03/25 02:23:04;;;;;;;9.07;1.60;;;;;;;7.64;100.00;100232.63;5059829;28;20040;-47
2023/03/25 02:25:38;;;;;;;6.85;1.98;;;;;;;7.64;100.00;100222.38;5076612;28;20170;-45
2023/03/25 02:28:46;;;;;;;6.32;1.55;;;;;;;7.67;100.00;100227.63;5074897;28;20471;-44
2023/03/25 02:31:31;;;;;;;8.95;1.67;;;;;;;7.64;100.00;100227.50;5074274;28;20044;-45
2023/03/25 02:34:21;;;;;;;8.48;2.00;;;;;;;7.53;100.00;100228.91;5072178;28;20025;-45
2023/03/25 02:36:52;;;;;;;6.85;1.70;;;;;;;7.47;100.00;100232.16;5072396;28;20105;-44
2023/03/25 02:39:31;;;;;;;9.30;1.90;;;;;;;7.43;100.00;100226.88;5071940;28;20143;-45
2023/03/25 02:42:19;;;;;;;6.38;2.00;;;;;;;7.38;100.00;100224.16;5072367;28;20033;-44
2023/03/25 02:45:02;;;;;;;7.45;1.85;;;;;;;7.43;100.00;100224.31;5073590;28;20271;-44
2023/03/25 02:47:35;;;;;;;12.05;1.90;;;;;;;7.46;100.00;100211.59;5081300;28;20056;-44
2023/03/25 02:50:08;;;;;;;9.45;1.85;;;;;;;7.44;100.00;100214.13;5075892;28;20065;-46
2023/03/25 02:52:41;;;;;;;9.23;1.90;;;;;;;7.46;100.00;100206.50;5058172;28;20077;-46
2023/03/25 02:55:10;;;;;;;8.27;2.10;;;;;;;7.49;100.00;100207.47;5075308;28;20024;-44
2023/03/25 02:57:42;;;;;;;7.97;1.80;;;;;;;7.52;100.00;100206.66;5072690;28;20032;-45
2023/03/25 03:00:14;;;;;;;8.10;1.70;;;;;;;7.55;100.00;100201.66;5077056;28;20024;-46
2023/03/25 03:02:44;;;;;;;9.70;1.75;;;;;;;7.55;100.00;100199.09;5071831;28;20112;-44
2023/03/25 03:05:28;;;;;;;10.57;1.90;;;;;;;7.58;100.00;100193.19;5075516;28;20035;-45
2023/03/25 03:08:13;;;;;;;9.77;1.80;;;;;;;7.61;100.00;100198.41;5072210;28;20054;-45
2023/03/25 03:10:54;;;;;;;9.60;1.95;;;;;;;7.60;100.00;100200.13;5072351;28;20104;-44
2023/03/25 03:14:04;;;;;;;7.10;1.70;;;;;;;7.62;100.00;100201.00;5073615;28;20028;-44
2023/03/25 03:16:59;;;;;;;8.20;1.90;;;;;;;7.61;100.00;100195.88;5059926;28;20040;-45
2023/03/25 03:19:33;;;;;;;8.80;1.60;;;;;;;7.63;100.00;100212.13;5080113;28;20035;-44
2023/03/25 03:22:14;;;;;;;12.68;1.92;;;;;;;7.58;100.00;100200.88;5072402;28;20020;-45
2023/03/25 03:24:51;;;;;;;6.70;1.92;;;;;;;7.55;100.00;100198.25;5070638;28;20038;-44
2023/03/25 03:27:32;;;;;;;7.15;2.00;;;;;;;7.51;100.00;100200.69;5079415;28;20029;-46
2023/03/25 03:30:10;;;;;;;8.27;2.00;;;;;;;7.41;100.00;100203.81;5072067;28;20051;-48
2023/03/25 03:32:52;;;;;;;11.18;2.42;;;;;;;7.35;100.00;100213.88;5071896;28;20039;-45
2023/03/25 03:35:30;;;;;;;10.57;2.33;;;;;;;7.31;100.00;100218.84;5071961;28;20378;-47
2023/03/25 03:38:02;;;;;;;10.13;2.38;;;;;;;7.32;100.00;100208.63;5079621;28;20047;-45
2023/03/25 03:40:30;;;;;;;9.10;2.30;;;;;;;7.28;100.00;100211.06;5070376;28;20026;-46
2023/03/25 03:43:04;;;;;;;15.80;2.60;;;;;;;7.28;100.00;100204.28;5071645;28;20032;-46
2023/03/25 03:45:37;;;;;;;16.17;2.70;;;;;;;7.30;100.00;100206.88;5075124;28;20106;-44
2023/03/25 03:48:10;;;;;;;14.25;2.72;;;;;;;7.26;100.00;100201.66;5073256;28;20102;-45
2023/03/25 03:50:40;;;;;;;13.90;2.22;;;;;;;7.29;100.00;100202.59;5069977;28;20101;-44
2023/03/25 03:53:19;;;;;;;11.38;2.47;;;;;;;7.32;100.00;100205.22;5069423;28;20033;-46
2023/03/25 03:55:48;;;;;;;13.75;1.92;;;;;;;7.32;100.00;100203.53;5072091;28;20499;-45
2023/03/25 03:58:22;;;;;;;14.80;2.13;;;;;;;7.29;100.00;100198.34;5071803;28;20202;-45
2023/03/25 04:00:56;;;;;;;10.90;2.50;;;;;;;7.32;100.00;100206.09;5071675;28;20032;-46
2023/03/25 04:03:29;;;;;;;11.10;1.83;;;;;;;7.41;100.00;100198.72;5073888;28;20024;-44
2023/03/25 04:06:34;;;;;;;9.98;1.88;;;;;;;7.50;100.00;100200.66;5078055;28;20126;-44
2023/03/25 04:09:17;;;;;;;11.63;1.90;;;;;;;7.51;100.00;100198.13;5045264;28;20064;-45
2023/03/25 04:11:48;;;;;;;9.98;1.80;;;;;;;7.50;100.00;100187.88;5056507;28;20428;-44
2023/03/25 04:14:13;;;;;;;11.68;2.13;;;;;;;7.58;100.00;100199.19;5070954;28;20054;-45
2023/03/25 04:16:39;;;;;;;11.95;1.90;;;;;;;7.56;100.00;100194.84;5073244;28;20019;-45
2023/03/25 04:19:05;;;;;;;8.52;2.13;;;;;;;7.61;100.00;100201.84;5075973;28;20390;-45
2023/03/25 04:21:31;;;;;;;8.57;1.83;;;;;;;7.61;100.00;100203.53;5070599;28;20559;-46
2023/03/25 04:24:00;;;;;;;9.05;1.70;;;;;;;7.57;100.00;100200.00;5081421;28;20367;-46
2023/03/25 04:26:32;;;;;;;9.07;1.70;;;;;;;7.58;100.00;100195.75;5076856;28;20544;-44
2023/03/25 04:28:58;;;;;;;10.60;1.83;;;;;;;7.57;100.00;100200.00;5075367;28;20036;-46
2023/03/25 04:31:24;;;;;;;7.82;1.50;;;;;;;7.61;100.00;100206.09;5058245;28;20105;-46
2023/03/25 04:33:50;;;;;;;10.77;2.05;;;;;;;7.63;100.00;100205.31;5073945;28;20036;-44
2023/03/25 04:36:16;;;;;;;8.48;1.30;;;;;;;7.63;100.00;100199.31;5079418;28;20036;-43
2023/03/25 04:38:44;;;;;;;11.85;1.73;;;;;;;7.59;100.00;100211.19;5067702;28;20433;-45
2023/03/25 04:41:11;;;;;;;10.85;1.45;;;;;;;7.68;100.00;100197.78;5074398;28;20028;-45
2023/03/25 04:43:38;;;;;;;8.30;1.67;;;;;;;7.68;100.00;100210.56;5070083;28;20040;-48
2023/03/25 04:46:04;;;;;;;7.25;1.60;;;;;;;7.67;100.00;100206.28;5075050;28;20069;-44
2023/03/25 04:48:32;;;;;;;7.00;1.48;;;;;;;7.64;100.00;100212.16;5076616;28;20016;-47
2023/03/25 04:50:58;;;;;;;8.20;1.73;;;;;;;7.63;100.00;100207.88;5073697;28;20095;-45
2023/03/25 04:53:25;;;;;;;7.53;1.35;;;;;;;7.59;100.00;100208.63;5073335;28;20115;-47
2023/03/25 04:55:51;;;;;;;9.93;1.80;;;;;;;7.57;100.00;100207.69;5071723;28;20036;-44
2023/03/25 04:58:17;;;;;;;11.07;2.15;;;;;;;7.60;100.00;100214.59;5073159;28;20021;-46
2023/03/25 05:00:49;;;;;;;7.38;1.60;;;;;;;7.57;100.00;100206.81;5076370;28;20036;-43
2023/03/25 05:03:15;;;;;;;8.35;1.38;;;;;;;7.53;100.00;100203.31;5055933;28;20489;-46
2023/03/25 05:05:41;;;;;;;6.18;1.38;;;;;;;7.51;100.00;100205.81;5071616;28;20095;-43
2023/03/25 05:08:06;;;;;;;9.18;2.17;;;;;;;7.46;100.00;100204.84;5055596;28;20086;-45
2023/03/25 05:10:33;;;;;;;10.77;1.83;;;;;;;7.43;100.00;100212.41;5074426;28;20418;-44
2023/03/25 05:13:04;;;;;;;8.88;1.85;;;;;;;7.39;100.00;100214.81;5078499;28;20035;-44
2023/03/25 05:15:34;;;;;;;9.93;1.85;;;;;;;7.36;100.00;100204.50;5069624;28;20076;-44
2023/03/25 05:18:01;;;;;;;10.27;1.88;;;;;;;7.35;100.00;100228.34;5076296;28;20032;-45
2023/03/25 05:20:26;;;;;;;10.10;2.03;;;;;;;7.30;100.00;100217.97;5070990;28;20402;-45
2023/03/25 05:22:52;;;;;;;10.63;2.33;;;;;;;7.27;100.00;100215.31;5069582;28;20027;-45
2023/03/25 05:25:21;;;;;;;9.30;1.67;;;;;;;7.21;100.00;100215.97;5071902;28;20461;-46
2023/03/25 05:27:47;;;;;;;9.57;1.90;;;;;;;7.14;100.00;100208.94;5070094;28;20086;-44
2023/03/25 05:30:14;;;;;;;13.27;2.03;;;;;;;7.11;100.00;100211.41;5069525;28;20044;-45
2023/03/25 05:32:41;;;;;;;8.55;2.08;;;;;;;7.11;100.00;100218.22;5072479;28;20043;-46
2023/03/25 05:35:07;;;;;;;8.98;1.90;;;;;;;7.09;100.00;100219.84;5070388;28;20036;-44
2023/03/25 05:37:32;;;;;;;11.95;2.40;;;;;;;7.12;100.00;100215.69;5070995;28;20047;-45
2023/03/25 05:39:58;;;;;;;9.00;2.50;;;;;;;7.17;100.00;100210.75;5073122;28;20036;-45
2023/03/25 05:42:23;;;;;;;12.10;2.35;;;;;;;7.16;100.00;100216.66;5068766;28;20205;-46
2023/03/25 05:44:50;;;;;;;10.73;2.28;;;;;;;7.15;100.00;100210.66;5042285;28;20376;-46
2023/03/25 05:47:24;;;;;;;13.90;3.22;;;;;;;7.18;100.00;100236.34;5074487;28;20056;-45
2023/03/25 05:49:51;;;;;;;8.45;2.70;;;;;;;7.18;100.00;100222.69;5054108;28;20040;-44
2023/03/25 05:52:18;;;;;;;10.82;2.38;;;;;;;7.23;100.00;100229.69;5075018;28;20028;-43
2023/03/25 05:54:45;;;;;;;9.68;2.10;;;;;;;7.22;100.00;100227.09;5072322;28;20107;-44
2023/03/25 05:57:11;;;;;;;13.35;2.15;;;;;;;7.27;100.00;100220.41;5074806;28;20035;-44
2023/03/25 05:59:39;;;;;;;11.95;2.30;;;;;;;7.25;100.00;100245.09;5072147;28;20046;-45
2023/03/25 06:02:12;;;;;;;10.43;2.47;;;;;;;7.31;100.00;100237.59;5075695;28;20032;-42
2023/03/25 06:04:40;;;;;;;10.38;1.90;;;;;;;7.32;100.00;100244.44;5075089;28;20028;-43
2023/03/25 06:07:18;;;;;;;11.90;2.05;;;;;;;7.30;100.00;100255.47;5076746;28;20043;-43
2023/03/25 06:09:47;;;;;;;8.93;1.90;;;;;;;7.35;100.00;100262.47;5076980;28;20031;-45
2023/03/25 06:12:14;;;;;;;;;;;;;;;7.45;100.00;100244.00;5077509;28;20089;-43
2023/03/25 06:14:44;;;;;;;9.30;1.92;;;;;;;7.40;100.00;100243.00;5078106;28;20271;-44
2023/03/25 06:17:15;;;;;;;11.35;2.17;;;;;;;7.40;100.00;100248.13;5077562;28;20044;-45
2023/03/25 06:19:41;;;;;;;10.15;2.40;;;;;;;7.39;100.00;100248.91;5063027;28;20067;-45
2023/03/25 06:22:09;;;;;;;12.63;2.55;;;;;;;7.40;100.00;100253.25;5077935;28;20078;-44
2023/03/25 06:24:38;;;;;;;8.10;2.35;;;;;;;7.41;100.00;100246.44;5078428;28;20028;-44
2023/03/25 06:27:05;;;;;;;11.02;2.70;;;;;;;7.44;100.00;100241.41;5076331;28;20378;-45
2023/03/25 06:29:36;;;;;;;10.13;2.65;;;;;;;7.45;100.00;100244.00;5082062;28;20032;-46
2023/03/25 06:32:02;;;;;;;9.52;2.13;;;;;;;7.40;100.00;100240.47;5071472;28;20037;-45
2023/03/25 06:34:28;;;;;;;11.32;2.30;;;;;;;7.46;100.00;100248.31;5073286;28;20151;-45
2023/03/25 06:36:53;;;;;;;10.88;2.30;;;;;;;7.51;100.00;100240.75;5071423;28;20135;-44
2023/03/25 06:39:19;;;;;;;9.82;1.88;;;;;;;7.52;100.00;100248.50;5072916;28;20031;-48
2023/03/25 06:41:45;;;;;;;10.98;1.90;;;;;;;7.66;100.00;100245.50;5067903;28;20375;-45
2023/03/25 06:44:10;;;;;;;14.75;2.13;;;;;;;7.70;100.00;100247.28;5071645;28;20053;-42
2023/03/25 06:46:36;;;;;;;12.15;1.95;;;;;;;7.76;99.36;100260.28;5071163;28;20115;-44
2023/03/25 06:49:01;;;;;;;10.43;2.15;;;;;;;7.77;99.94;100259.47;5071484;28;20036;-45
2023/03/25 06:51:27;;;;;;;12.15;2.75;;;;;;;7.84;99.16;100257.97;5077690;28;20054;-47
2023/03/25 06:53:52;;;;;;;9.95;1.80;;;;;;;7.88;98.78;100273.44;5075111;28;20025;-44
2023/03/25 06:56:18;;;;;;;9.48;2.20;;;;;;;7.99;97.40;100266.06;5072293;28;20394;-47
2023/03/25 06:58:43;;;;;;;11.52;2.03;;;;;;;7.94;97.51;100268.50;5075227;28;20040;-43
2023/03/25 07:01:09;;;;;;;12.93;2.28;;;;;;;7.96;99.37;100274.53;5075821;28;20085;-44
2023/03/25 07:03:35;;;;;;;13.40;2.10;;;;;;;8.01;98.19;100269.56;5077826;28;20036;-44
2023/03/25 07:06:01;;;;;;;8.20;1.95;;;;;;;8.04;98.09;100265.38;5073179;28;20028;-44
2023/03/25 07:08:27;;;;;;;11.15;2.28;;;;;;;8.10;97.53;100263.81;5077026;28;20074;-44
2023/03/25 07:10:52;;;;;;;10.98;2.42;;;;;;;8.09;97.60;100260.41;5076786;28;20028;-45
2023/03/25 07:13:18;;;;;;;12.40;2.13;;;;;;;8.19;95.82;100264.97;5060794;28;20082;-45
2023/03/25 07:15:43;;;;;;;15.43;2.42;;;;;;;8.19;97.13;100254.72;5072826;28;20025;-47
2023/03/25 07:18:09;;;;;;;14.25;2.55;;;;;;;8.27;95.96;100262.59;5060132;28;20486;-44
2023/03/25 07:20:34;;;;;;;16.75;2.42;;;;;;;8.34;94.96;100269.63;5076081;28;20077;-45
2023/03/25 07:22:59;;;;;;;19.38;2.90;;;;;;;8.49;94.75;100258.94;5076294;28;20372;-44
2023/03/25 07:25:25;;;;;;;18.65;2.45;;;;;;;8.54;95.25;100265.06;5073771;28;20040;-44
2023/03/25 07:27:50;;;;;;;16.52;2.42;;;;;;;8.57;95.92;100276.28;5072934;28;20032;-47
2023/03/25 07:30:16;;;;;;;14.07;2.55;;;;;;;8.48;98.80;100278.56;5071040;28;20032;-47
2023/03/25 07:32:43;;;;;;;15.27;2.35;;;;;;;8.40;99.37;100272.38;5070955;28;20119;-47
2023/03/25 07:35:09;;;;;;;12.48;2.33;;;;;;;8.25;99.41;100283.06;5076489;28;20012;-47
2023/03/25 07:37:34;;;;;;;15.13;2.80;;;;;;;8.16;100.00;100269.97;5075415;28;20039;-48
2023/03/25 07:39:59;;;;;;;17.77;3.17;;;;;;;8.11;100.00;100283.47;5075026;28;20081;-46
2023/03/25 07:42:25;;;;;;;19.42;2.80;;;;;;;8.19;99.86;100294.78;5074666;28;20772;-48
2023/03/25 07:44:50;;;;;;;13.23;2.75;;;;;;;8.05;100.00;100287.59;5056761;28;20090;-47
2023/03/25 07:47:16;;;;;;;18.85;3.45;;;;;;;8.04;100.00;100290.13;5054125;28;20083;-46
2023/03/25 07:49:42;;;;;;;12.27;2.03;;;;;;;8.00;100.00;100286.59;5072325;28;20036;-46
2023/03/25 07:52:08;;;;;;;19.98;3.08;;;;;;;8.02;100.00;100287.53;5072443;28;20086;-46
2023/03/25 07:54:34;;;;;;;15.27;2.63;;;;;;;8.02;100.00;100302.03;5073600;28;20076;-50
2023/03/25 07:57:00;;;;;;;15.52;2.30;;;;;;;8.06;100.00;100299.56;5077812;28;20107;-49
2023/03/25 07:59:25;;;;;;;17.20;2.72;;;;;;;8.12;100.00;100296.31;5069672;28;20203;-47
2023/03/25 08:01:51;;;;;;;20.48;2.83;;;;;;;8.15;100.00;100309.22;5070620;28;20048;-48
2023/03/25 08:04:17;;;;;;;15.82;2.72;;;;;;;8.22;100.00;100303.44;5081479;28;20458;-48
2023/03/25 08:06:42;;;;;;;17.60;2.88;;;;;;;8.16;100.00;100303.28;5073161;28;20025;-49
2023/03/25 08:09:07;;;;;;;17.45;2.40;;;;;;;8.19;100.00;100310.16;5074676;28;20025;-48
2023/03/25 08:11:33;;;;;;;14.90;2.58;;;;;;;8.22;100.00;100320.50;5075127;28;20056;-48
2023/03/25 08:13:58;;;;;;;15.77;2.42;;;;;;;8.22;100.00;100325.63;5058054;28;20025;-47
2023/03/25 08:16:24;;;;;;;19.35;3.08;;;;;;;8.15;100.00;100316.91;5076282;28;20031;-50
2023/03/25 08:18:51;;;;;;;18.92;3.50;;;;;;;8.06;100.00;100325.16;5072549;28;20025;-47
2023/03/25 08:21:23;;;;;;;13.45;2.60;;;;;;;7.99;100.00;100323.25;5074145;28;20102;-50
2023/03/25 08:23:57;;;;;;;17.77;3.28;;;;;;;7.97;100.00;100324.06;5070142;28;20532;-49
2023/03/25 08:26:28;;;;;;;19.73;3.75;;;;;;;8.02;100.00;100330.19;5082134;28;20497;-51
2023/03/25 08:28:56;;;;;;;20.75;3.05;;;;;;;8.05;100.00;100323.44;5071749;28;20073;-48
2023/03/25 08:31:25;;;;;;;13.90;2.83;;;;;;;8.12;100.00;100331.31;5074487;28;20020;-51
2023/03/25 08:33:51;;;;;;;20.85;3.35;;;;;;;8.16;100.00;100340.81;5068262;28;20274;-50
2023/03/25 08:36:22;;;;;;;16.48;3.30;;;;;;;8.09;100.00;100339.78;5070064;28;20035;-47
2023/03/25 08:38:48;;;;;;;20.33;3.22;;;;;;;8.04;100.00;100338.75;5058723;28;20039;-45
2023/03/25 08:41:14;;;;;;;18.10;3.50;;;;;;;8.03;100.00;100332.78;5073440;28;20039;-46
2023/03/25 08:43:39;;;;;;;16.45;3.33;;;;;;;8.01;100.00;100339.56;5072307;28;20032;-49
2023/03/25 08:46:04;;;;;;;18.00;2.78;;;;;;;8.06;100.00;100325.16;5073587;28;20032;-48
2023/03/25 08:48:30;;;;;;;13.00;2.67;;;;;;;8.13;100.00;100338.16;5077320;28;20024;-47
2023/03/25 08:50:56;;;;;;;23.20;3.67;;;;;;;8.18;100.00;100339.16;5072534;28;20045;-48
2023/03/25 08:53:22;;;;;;;17.60;3.58;;;;;;;8.24;100.00;100329.09;5072274;28;20516;-49
2023/03/25 08:55:54;;;;;;;22.10;3.80;;;;;;;8.23;100.00;100332.50;5071799;28;20044;-50
2023/03/25 08:58:21;;;;;;;21.55;3.25;;;;;;;8.25;100.00;100333.38;5054096;28;20104;-50
2023/03/25 09:00:48;;;;;;;18.77;3.53;;;;;;;8.39;100.00;100333.84;5051403;28;20475;-50
2023/03/25 09:03:13;;;;;;;17.58;3.80;;;;;;;8.60;100.00;100332.72;5069670;28;20108;-48
2023/03/25 09:05:39;;;;;;;15.30;3.03;;;;;;;8.76;100.00;100333.16;5068029;28;20035;-55
2023/03/25 09:08:05;;;;;;;20.38;3.88;;;;;;;8.93;100.00;100329.34;5070849;28;20028;-50
2023/03/25 09:10:31;;;;;;;21.67;3.95;;;;;;;9.13;100.00;100337.53;5069907;28;20056;-49
2023/03/25 09:12:56;;;;;;;19.23;3.83;;;;;;;9.24;100.00;100325.00;5070736;28;20066;-52
2023/03/25 09:15:22;;;;;;;18.85;4.00;;;;;;;9.43;100.00;100324.59;5069806;28;20024;-52
2023/03/25 09:17:47;;;;;;;20.10;4.05;;;;;;;9.60;100.00;100323.31;5057416;28;20457;-50
2023/03/25 09:20:13;;;;;;;16.75;3.25;;;;;;;9.70;99.71;100313.22;5076757;28;20599;-48
2023/03/25 09:22:40;;;;;;;20.00;3.90;;;;;;;9.76;100.00;100321.06;5080112;28;20060;-47
2023/03/25 09:25:06;;;;;;;21.38;3.90;;;;;;;9.89;98.49;100306.00;5074521;28;20512;-47
2023/03/25 09:27:32;;;;;;;21.95;4.85;;;;;;;10.03;100.00;100311.44;5074679;28;20032;-51
2023/03/25 09:29:58;;;;;;;16.58;3.17;;;;;;;10.22;99.34;100310.09;5074285;28;20035;-47
2023/03/25 09:32:24;;;;;;;25.48;3.90;;;;;;;10.35;96.68;100319.81;5055302;28;20086;-52
2023/03/25 09:34:50;;;;;;;20.50;4.10;;;;;;;10.48;95.41;100339.78;5074381;28;20095;-50
2023/03/25 09:37:15;;;;;;;21.75;3.88;;;;;;;10.58;95.43;100328.00;5074553;28;20116;-46
2023/03/25 09:39:41;;;;;;;24.20;4.80;;;;;;;10.65;94.52;100328.97;5072924;28;20029;-49
2023/03/25 09:42:18;;;;;;;19.42;3.22;;;;;;;10.69;90.72;100315.34;5077482;28;20100;-50
2023/03/25 09:44:59;;;;;;;18.70;3.90;;;;;;;10.63;91.19;100330.66;5060089;28;20561;-48
2023/03/25 09:47:28;;;;;;;24.50;3.95;;;;;;;10.58;92.70;100333.13;5069027;28;20426;-49
2023/03/25 09:49:57;;;;;;;22.58;4.18;;;;;;;10.43;94.46;100330.25;5080388;28;20081;-48
2023/03/25 09:52:28;;;;;;;21.85;3.83;;;;;;;10.28;96.77;100337.66;5079318;28;20025;-54
2023/03/25 09:55:02;;;;;;;23.25;4.25;;;;;;;10.21;97.77;100334.94;5076666;28;20016;-47
2023/03/25 09:57:32;;;;;;;24.17;3.72;;;;;;;10.08;96.57;100345.78;5076611;28;20032;-43
2023/03/25 10:00:02;;;;;;;17.63;3.75;;;;;;;9.89;97.17;100338.53;5074749;28;20028;-44
2023/03/25 10:02:34;;;;;;;23.13;3.83;;;;;;;9.73;98.65;100345.00;5074723;28;20096;-45
2023/03/25 10:05:19;;;;;;;25.60;4.47;;;;;;;9.57;100.00;100356.59;5055387;28;20414;-44
2023/03/25 10:07:50;;;;;;;21.60;4.20;;;;;;;9.39;100.00;100354.44;5078524;28;20035;-45
2023/03/25 10:10:28;;;;;;;23.58;4.13;;;;;;;9.32;100.00;100364.53;5074473;28;20060;-44
2023/03/25 10:13:21;;;;;;;23.38;4.82;;;;;;;9.30;100.00;100363.63;5076840;28;20090;-47
2023/03/25 10:16:09;;;;;;;24.00;4.95;;;;;;;9.29;100.00;100364.47;5073214;28;20458;-46
2023/03/25 10:18:59;;;;;;;23.15;4.70;;;;;;;9.49;100.00;100354.69;5072267;28;20043;-44
2023/03/25 10:21:36;;;;;;;;;;;;;;;9.72;100.00;100353.53;5072464;28;20027;-45
2023/03/25 10:24:19;;;;;;;24.25;4.20;;;;;;;9.71;100.00;100369.78;5075955;28;19912;-44
2023/03/25 10:26:59;;;;;;;19.88;4.07;;;;;;;9.56;100.00;100385.66;5074163;28;20021;-44
2023/03/25 10:29:33;;;;;;;18.17;3.80;;;;;;;9.29;100.00;100385.00;5074016;28;20036;-43
2023/03/25 10:32:05;;;;;;;20.05;4.10;;;;;;;9.09;100.00;100377.63;5074385;28;20034;-42
2023/03/25 10:34:45;;;;;;;26.77;4.40;;;;;;;9.06;100.00;100372.44;5074618;28;20016;-45
2023/03/25 10:37:16;;;;;;;24.08;4.43;;;;;;;9.04;100.00;100374.09;5075459;28;20427;-47
2023/03/25 10:39:46;;;;;;;32.15;4.20;;;;;;;9.08;100.00;100386.16;5060754;28;20078;-45
2023/03/25 10:42:23;;;;;;;22.50;3.92;;;;;;;9.09;100.00;100377.63;5060695;28;20028;-44
2023/03/25 10:44:49;;;;;;;22.35;3.78;;;;;;;9.02;100.00;100380.00;5072158;28;20033;-45
2023/03/25 10:47:21;;;;;;;19.23;4.10;;;;;;;9.02;100.00;100380.84;5076599;28;20454;-44
2023/03/25 10:49:48;;;;;;;22.45;4.22;;;;;;;9.03;100.00;100377.47;5071417;28;20384;-44
2023/03/25 10:52:15;;;;;;;22.05;3.95;;;;;;;9.07;100.00;100379.28;5082992;28;20024;-43
2023/03/25 10:54:44;;;;;;;27.02;4.45;;;;;;;9.07;100.00;100378.41;5076322;28;20029;-46
2023/03/25 10:57:17;;;;;;;24.77;4.50;;;;;;;9.12;100.00;100381.97;5078281;28;20497;-46
2023/03/25 10:59:52;;;;;;;24.60;4.40;;;;;;;9.17;100.00;100380.41;5074160;28;20028;-47
2023/03/25 11:02:21;;;;;;;21.02;4.20;;;;;;;9.24;100.00;100387.44;5074744;28;20051;-46
2023/03/25 11:04:51;;;;;;;26.57;4.37;;;;;;;9.31;100.00;100379.06;5072473;28;20108;-47
2023/03/25 11:07:31;;;;;;;28.70;4.47;;;;;;;9.46;100.00;100383.69;5073489;28;20294;-44
2023/03/25 11:10:31;;;;;;;22.15;3.63;;;;;;;9.63;100.00;100381.53;5059348;28;20039;-43
2023/03/25 11:13:02;;;;;;;19.90;3.40;;;;;;;9.72;100.00;100371.50;5045897;28;20032;-46
2023/03/25 11:15:36;;;;;;;20.98;3.10;;;;;;;9.80;98.26;100374.25;5056435;28;20036;-45
2023/03/25 11:18:10;;;;;;;15.27;2.88;;;;;;;9.88;96.90;100391.56;5074666;28;20029;-45
2023/03/25 11:20:49;;;;;;;15.48;2.30;;;;;;;9.99;94.02;100393.50;5076722;28;20028;-49
2023/03/25 11:23:21;;;;;;;;;;;;;;;10.05;94.78;100384.25;5074275;28;20019;-46
2023/03/25 11:25:47;;;;;;;19.65;2.03;;;;;;;10.14;89.79;100384.47;5072026;28;19920;-46
2023/03/25 11:28:26;;;;;;;18.52;2.65;;;;;;;10.25;85.76;100384.69;5076293;28;20250;-46
2023/03/25 11:31:16;;;;;;;12.35;2.22;;;;;;;10.33;86.37;100393.47;5071863;28;20027;-44
2023/03/25 11:34:01;;;;;;;11.10;2.13;;;;;;;10.43;83.53;100397.06;5075428;28;20044;-45
2023/03/25 11:36:29;;;;;;;10.77;1.63;;;;;;;10.60;80.82;100402.56;5076818;28;20073;-48